Time;durP1;ratioP1;P1;durP2;ratioP2;P2;SDS_P1;SDS_P2;PMS_P1;PMS_P2;Temp;Humidity;BMP_temperature;BMP_pressure;BME280_temperature;BME280_humidity;BME280_pressure;Samples;Min_cycle;Max_cycle;Signal;HPM_P1;HPM_P2
2022/09/25 00:00:54;;;;;;;3.97;1.50;;;15.00;99.90;;;;;;4964386;29;20326;-81
2022/09/25 00:03:21;;;;;;;5.60;1.30;;;14.90;99.90;;;;;;4964434;29;20037;-81
2022/09/25 00:05:47;;;;;;;4.18;1.77;;;14.90;99.90;;;;;;4964128;29;20019;-82
2022/09/25 00:08:14;;;;;;;6.10;1.55;;;14.90;99.90;;;;;;4964174;29;20090;-81
2022/09/25 00:10:42;;;;;;;3.45;1.42;;;14.80;99.90;;;;;;4964016;29;20098;-81
2022/09/25 00:13:08;;;;;;;6.00;1.95;;;14.80;99.90;;;;;;4964013;29;20030;-81
2022/09/25 00:15:33;;;;;;;5.68;1.70;;;14.70;99.90;;;;;;4964098;29;20023;-81
2022/09/25 00:17:59;;;;;;;6.38;1.77;;;14.70;99.90;;;;;;4964190;29;20027;-83
2022/09/25 00:20:25;;;;;;;5.40;1.90;;;14.70;99.90;;;;;;4964045;29;20026;-83
2022/09/25 00:22:52;;;;;;;6.10;1.70;;;14.60;99.90;;;;;;4963460;28;20019;-83
2022/09/25 00:25:19;;;;;;;10.60;2.80;;;14.60;99.90;;;;;;4963748;29;20038;-83
2022/09/25 00:27:45;;;;;;;5.90;2.05;;;14.50;99.90;;;;;;4963560;29;20307;-83
2022/09/25 00:30:13;;;;;;;5.57;1.80;;;14.50;99.90;;;;;;4963676;29;20019;-83
2022/09/25 00:32:38;;;;;;;6.72;2.63;;;14.50;99.90;;;;;;4963646;29;20032;-83
2022/09/25 00:35:05;;;;;;;7.38;1.92;;;14.50;99.90;;;;;;4963773;29;20023;-82
2022/09/25 00:37:35;;;;;;;4.57;1.70;;;14.40;99.90;;;;;;4963606;29;20031;-83
2022/09/25 00:40:01;;;;;;;6.78;1.95;;;14.40;99.90;;;;;;4963519;29;20023;-84
2022/09/25 00:42:27;;;;;;;5.03;1.70;;;14.40;99.90;;;;;;4963495;29;20274;-83
2022/09/25 00:44:57;;;;;;;5.00;1.98;;;14.40;99.90;;;;;;4962814;29;20031;-82
2022/09/25 00:47:48;;;;;;;5.07;1.75;;;14.30;99.90;;;;;;4963430;29;20014;-83
2022/09/25 00:50:25;;;;;;;5.75;1.85;;;14.30;99.90;;;;;;4963307;29;20086;-83
2022/09/25 00:52:54;;;;;;;7.35;1.90;;;14.30;99.90;;;;;;4963485;29;20022;-84
2022/09/25 00:55:22;;;;;;;5.22;1.80;;;14.30;99.90;;;;;;4963348;29;20370;-81
2022/09/25 00:57:52;;;;;;;5.95;1.90;;;14.30;99.90;;;;;;4963241;29;20328;-82
2022/09/25 01:00:18;;;;;;;4.18;1.50;;;14.30;99.90;;;;;;4963394;29;20023;-83
2022/09/25 01:02:52;;;;;;;4.45;1.70;;;14.30;99.90;;;;;;4963240;29;20370;-83
2022/09/25 01:05:20;;;;;;;6.32;1.85;;;14.30;99.90;;;;;;4963206;29;20358;-83
2022/09/25 01:07:48;;;;;;;6.35;1.98;;;14.30;99.90;;;;;;4963083;29;20046;-83
2022/09/25 01:10:16;;;;;;;4.97;1.70;;;14.30;99.90;;;;;;4963297;29;20035;-82
2022/09/25 01:12:45;;;;;;;7.82;2.08;;;14.30;99.90;;;;;;4962970;29;20026;-84
2022/09/25 01:15:13;;;;;;;5.72;1.70;;;14.30;99.90;;;;;;4963337;29;20034;-83
2022/09/25 01:18:06;;;;;;;5.32;1.42;;;14.30;99.90;;;;;;4963185;29;20030;-83
2022/09/25 01:20:42;;;;;;;3.83;2.00;;;14.30;99.90;;;;;;4963141;29;20082;-83
2022/09/25 01:23:19;;;;;;;7.65;1.80;;;14.30;99.90;;;;;;4949575;29;20027;-83
2022/09/25 01:25:55;;;;;;;4.20;1.80;;;14.20;99.90;;;;;;4962873;29;20035;-83
2022/09/25 01:28:52;;;;;;;6.20;1.85;;;14.20;99.90;;;;;;4950488;29;20074;-83
2022/09/25 01:31:28;;;;;;;5.40;1.92;;;14.20;99.90;;;;;;4962980;29;20039;-83
2022/09/25 01:33:59;;;;;;;7.13;1.90;;;14.20;99.90;;;;;;4964262;28;20049;-83
2022/09/25 01:36:28;;;;;;;3.65;1.75;;;14.10;99.90;;;;;;4966761;29;20015;-83
2022/09/25 01:39:07;;;;;;;2.90;1.77;;;14.10;99.90;;;;;;4966824;29;20478;-84
2022/09/25 01:41:56;;;;;;;4.78;1.90;;;14.10;99.90;;;;;;4966622;29;20090;-83
2022/09/25 01:44:42;;;;;;;6.10;1.70;;;14.00;99.90;;;;;;4966608;29;20503;-82
2022/09/25 01:47:17;;;;;;;4.70;1.70;;;14.00;99.90;;;;;;4966857;29;20023;-83
2022/09/25 01:49:52;;;;;;;6.85;2.22;;;14.00;99.90;;;;;;4966488;29;20219;-83
2022/09/25 01:52:24;;;;;;;6.25;2.10;;;14.00;99.90;;;;;;4966468;29;20007;-83
2022/09/25 01:54:55;;;;;;;8.13;1.65;;;13.90;99.90;;;;;;4966446;29;20181;-83
2022/09/25 01:57:31;;;;;;;6.50;1.90;;;13.90;99.90;;;;;;4966187;29;20015;-83
2022/09/25 02:00:18;;;;;;;5.47;1.80;;;13.90;99.90;;;;;;4966530;29;20033;-83
2022/09/25 02:03:07;;;;;;;6.00;1.75;;;13.90;99.90;;;;;;4966362;29;20030;-82
2022/09/25 02:05:52;;;;;;;5.15;1.83;;;13.80;99.90;;;;;;4966062;29;20062;-87
2022/09/25 02:08:27;;;;;;;;;;;13.80;99.90;;;;;;4966891;29;20027;-82
2022/09/25 02:10:57;;;;;;;4.93;1.70;;;13.80;99.90;;;;;;4966216;29;19906;-83
2022/09/25 02:13:33;;;;;;;3.42;2.00;;;13.80;99.90;;;;;;4966435;29;20015;-83
2022/09/25 02:16:05;;;;;;;4.97;2.10;;;13.70;99.90;;;;;;4966071;29;20243;-83
2022/09/25 02:21:34;;;;;;;7.18;2.00;;;13.70;99.90;;;;;;4966097;29;20042;-83
2022/09/25 02:24:10;;;;;;;5.90;2.20;;;13.70;99.90;;;;;;4966082;29;20321;-83
2022/09/25 02:26:37;;;;;;;6.47;1.95;;;13.70;99.90;;;;;;4952940;29;20042;-83
2022/09/25 02:29:04;;;;;;;8.50;2.20;;;13.70;99.90;;;;;;4966024;29;20066;-83
2022/09/25 02:31:35;;;;;;;4.25;2.20;;;13.60;99.90;;;;;;4965866;29;20027;-83
2022/09/25 02:34:02;;;;;;;3.70;1.75;;;13.70;99.90;;;;;;4965873;29;20028;-83
2022/09/25 02:36:28;;;;;;;4.07;2.25;;;13.60;99.90;;;;;;4965698;29;20045;-83
2022/09/25 02:38:55;;;;;;;4.75;1.70;;;13.60;99.90;;;;;;4965833;29;20023;-83
2022/09/25 02:41:54;;;;;;;5.93;2.08;;;13.60;99.90;;;;;;4965487;29;20090;-83
2022/09/25 02:44:20;;;;;;;3.55;1.67;;;13.60;99.90;;;;;;4965492;28;20022;-83
2022/09/25 02:47:13;;;;;;;6.28;2.30;;;13.50;99.90;;;;;;4965731;29;20019;-83
2022/09/25 02:50:04;;;;;;;7.55;1.85;;;13.50;99.90;;;;;;4965451;29;20070;-83
2022/09/25 02:52:57;;;;;;;5.28;1.90;;;13.50;99.90;;;;;;4965489;29;20027;-82
2022/09/25 02:55:48;;;;;;;5.53;2.00;;;13.40;99.90;;;;;;4965431;29;20033;-83
2022/09/25 02:58:25;;;;;;;4.68;2.00;;;13.40;99.90;;;;;;4965397;29;20043;-83
2022/09/25 03:00:54;;;;;;;6.43;2.35;;;13.40;99.90;;;;;;4965450;29;20018;-84
2022/09/25 03:03:23;;;;;;;4.97;2.30;;;13.40;99.90;;;;;;4965493;29;20030;-82
2022/09/25 03:05:51;;;;;;;4.50;2.00;;;13.40;99.90;;;;;;4965150;29;20031;-83
2022/09/25 03:08:36;;;;;;;4.80;2.25;;;13.40;99.90;;;;;;4964113;29;20223;-85
2022/09/25 03:11:05;;;;;;;6.88;2.00;;;13.40;99.90;;;;;;4964790;29;20033;-83
2022/09/25 03:13:33;;;;;;;5.35;1.92;;;13.40;99.90;;;;;;4965154;29;20026;-84
2022/09/25 03:16:24;;;;;;;5.93;1.75;;;13.40;99.90;;;;;;4965208;29;20351;-83
2022/09/25 03:18:50;;;;;;;4.65;2.17;;;13.40;99.90;;;;;;4965129;29;20031;-82
2022/09/25 03:21:16;;;;;;;4.15;2.10;;;13.40;99.90;;;;;;4964085;29;20322;-83
2022/09/25 03:23:41;;;;;;;5.60;2.53;;;13.30;99.90;;;;;;4965138;29;20027;-83
2022/09/25 03:26:07;;;;;;;4.45;1.90;;;13.30;99.90;;;;;;4964626;29;20230;-83
2022/09/25 03:28:33;;;;;;;3.45;2.03;;;13.30;99.90;;;;;;4964867;29;20135;-83
2022/09/25 03:31:05;;;;;;;8.07;2.08;;;13.30;99.90;;;;;;4964768;29;20204;-83
2022/09/25 03:33:35;;;;;;;5.60;2.33;;;13.30;99.90;;;;;;4964776;29;20243;-82
2022/09/25 03:36:17;;;;;;;4.88;1.75;;;13.20;99.90;;;;;;4964931;29;20019;-83
2022/09/25 03:38:44;;;;;;;4.22;2.25;;;13.20;99.90;;;;;;4953486;29;20090;-83
2022/09/25 03:41:12;;;;;;;5.60;1.90;;;13.20;99.90;;;;;;4964603;29;20020;-83
2022/09/25 03:43:40;;;;;;;5.22;2.17;;;13.20;99.90;;;;;;4964649;29;20023;-83
2022/09/25 03:46:08;;;;;;;4.85;1.88;;;13.10;99.90;;;;;;4964523;29;20031;-83
2022/09/25 03:48:35;;;;;;;6.10;1.70;;;13.10;99.90;;;;;;4964461;29;20357;-83
2022/09/25 03:51:01;;;;;;;3.25;1.80;;;13.10;99.90;;;;;;4964422;29;20366;-83
2022/09/25 03:53:32;;;;;;;5.55;2.00;;;13.00;99.90;;;;;;4964544;29;20023;-83
2022/09/25 03:56:02;;;;;;;6.07;2.17;;;13.00;99.90;;;;;;4963957;28;20041;-83
2022/09/25 03:58:28;;;;;;;6.18;2.47;;;12.90;99.90;;;;;;4964035;29;20304;-83
2022/09/25 04:00:56;;;;;;;3.72;1.77;;;13.00;99.90;;;;;;4964194;29;20026;-83
2022/09/25 04:03:27;;;;;;;4.82;2.10;;;13.00;99.90;;;;;;4964270;29;20026;-84
2022/09/25 04:05:54;;;;;;;5.70;2.35;;;13.00;99.90;;;;;;4964011;29;20035;-83
2022/09/25 04:08:20;;;;;;;4.78;2.10;;;12.90;99.90;;;;;;4964178;29;20070;-83
2022/09/25 04:10:46;;;;;;;8.27;2.13;;;12.90;99.90;;;;;;4963941;29;20339;-83
2022/09/25 04:13:12;;;;;;;3.95;2.05;;;12.90;99.90;;;;;;4964356;29;20023;-82
2022/09/25 04:15:41;;;;;;;5.55;2.25;;;12.90;99.90;;;;;;4964045;29;20019;-83
2022/09/25 04:18:08;;;;;;;7.00;1.98;;;12.90;99.90;;;;;;4963341;28;20027;-82
2022/09/25 04:20:34;;;;;;;6.88;2.40;;;12.90;99.90;;;;;;4963401;29;20027;-83
2022/09/25 04:23:00;;;;;;;4.05;2.10;;;12.90;99.90;;;;;;4963361;29;20038;-84
2022/09/25 04:25:26;;;;;;;9.07;2.70;;;12.90;99.90;;;;;;4963701;29;20027;-83
2022/09/25 04:27:54;;;;;;;4.82;2.28;;;12.90;99.90;;;;;;4963676;29;20233;-82
2022/09/25 04:30:24;;;;;;;7.03;2.13;;;12.90;99.90;;;;;;4963848;29;20019;-82
2022/09/25 04:35:34;;;;;;;4.28;2.22;;;12.90;99.90;;;;;;4963681;29;20034;-83
2022/09/25 04:38:00;;;;;;;5.38;2.78;;;12.90;99.90;;;;;;4963619;29;20027;-83
2022/09/25 04:40:27;;;;;;;4.72;2.50;;;12.90;99.90;;;;;;4963676;29;20034;-82
2022/09/25 04:43:00;;;;;;;6.88;2.25;;;12.90;99.90;;;;;;4963268;29;20342;-81
2022/09/25 04:45:26;;;;;;;5.30;2.60;;;12.90;99.90;;;;;;4963451;29;20034;-80
2022/09/25 04:47:53;;;;;;;4.47;2.22;;;12.90;99.90;;;;;;4963611;29;20026;-83
2022/09/25 04:50:20;;;;;;;5.13;2.55;;;12.90;99.90;;;;;;4963379;29;20031;-81
2022/09/25 04:52:46;;;;;;;4.63;2.30;;;12.80;99.90;;;;;;4963495;29;20030;-82
2022/09/25 04:55:13;;;;;;;8.43;2.53;;;12.80;99.90;;;;;;4963512;29;20031;-81
2022/09/25 04:57:38;;;;;;;8.40;2.55;;;12.80;99.90;;;;;;4963252;29;20102;-82
2022/09/25 05:00:05;;;;;;;4.90;2.08;;;12.70;99.90;;;;;;4946122;29;20082;-81
2022/09/25 05:02:31;;;;;;;5.97;2.50;;;12.70;99.90;;;;;;4963168;29;20020;-81
2022/09/25 05:04:57;;;;;;;6.93;2.28;;;12.70;99.90;;;;;;4963199;29;20311;-81
2022/09/25 05:07:22;;;;;;;3.90;1.73;;;12.70;99.90;;;;;;4946100;29;20060;-81
2022/09/25 05:09:48;;;;;;;7.78;2.22;;;12.70;99.90;;;;;;4963265;29;20030;-82
2022/09/25 05:12:14;;;;;;;6.05;2.00;;;12.70;99.90;;;;;;4963125;29;20011;-81
2022/09/25 05:14:41;;;;;;;7.15;2.20;;;12.70;99.90;;;;;;4963214;29;20281;-81
2022/09/25 05:17:07;;;;;;;8.95;2.28;;;12.80;99.90;;;;;;4962802;29;20081;-81
2022/09/25 05:19:34;;;;;;;6.20;1.80;;;12.80;99.90;;;;;;4962275;29;20035;-81
2022/09/25 05:21:59;;;;;;;5.13;2.00;;;12.80;99.90;;;;;;4962700;29;20019;-81
2022/09/25 05:24:25;;;;;;;4.95;1.95;;;12.90;99.90;;;;;;4962960;29;20033;-82
2022/09/25 05:26:51;;;;;;;5.70;1.95;;;12.90;99.90;;;;;;4963136;29;20094;-81
2022/09/25 05:29:16;;;;;;;4.63;1.75;;;13.00;99.90;;;;;;4963116;29;20027;-81
2022/09/25 05:31:45;;;;;;;6.03;1.83;;;13.00;99.90;;;;;;4962767;29;20027;-81
2022/09/25 05:34:12;;;;;;;3.42;2.00;;;13.00;99.90;;;;;;4962899;29;20074;-81
2022/09/25 05:36:37;;;;;;;5.40;2.25;;;13.10;99.90;;;;;;4962839;29;20031;-81
2022/09/25 05:39:03;;;;;;;4.53;1.98;;;13.20;99.90;;;;;;4962946;29;20099;-81
2022/09/25 05:41:30;;;;;;;4.05;2.10;;;13.30;99.90;;;;;;4962783;29;20027;-80
2022/09/25 05:43:56;;;;;;;5.20;1.95;;;13.40;99.90;;;;;;4963023;29;20024;-81
2022/09/25 05:46:22;;;;;;;6.88;2.00;;;13.50;99.90;;;;;;4945780;29;20263;-80
2022/09/25 05:48:48;;;;;;;4.10;2.05;;;13.50;99.90;;;;;;4962930;29;20026;-81
2022/09/25 05:51:14;;;;;;;4.07;1.95;;;13.60;99.90;;;;;;4962833;29;20100;-81
2022/09/25 05:53:40;;;;;;;4.80;1.70;;;13.70;99.90;;;;;;4962804;29;20023;-81
2022/09/25 05:56:06;;;;;;;5.38;1.80;;;13.70;99.90;;;;;;4963019;29;20129;-81
2022/09/25 05:58:33;;;;;;;4.90;1.90;;;13.80;99.90;;;;;;4962767;29;20375;-81
2022/09/25 06:01:02;;;;;;;8.18;2.00;;;13.80;99.90;;;;;;4962893;29;20062;-82
2022/09/25 06:03:28;;;;;;;4.28;2.22;;;13.90;99.90;;;;;;4962827;29;20030;-81
2022/09/25 06:05:55;;;;;;;5.45;1.95;;;14.00;99.90;;;;;;4962733;29;20057;-81
2022/09/25 06:08:22;;;;;;;4.10;1.90;;;14.00;99.90;;;;;;4962809;29;20023;-80
2022/09/25 06:10:54;;;;;;;4.60;2.13;;;14.00;99.90;;;;;;4962494;29;20070;-80
2022/09/25 06:13:22;;;;;;;4.95;2.45;;;14.00;99.90;;;;;;4962375;29;20736;-81
2022/09/25 06:15:51;;;;;;;5.20;1.98;;;14.00;99.90;;;;;;4962602;29;20026;-81
2022/09/25 06:18:18;;;;;;;5.18;1.70;;;14.10;99.90;;;;;;4962803;29;20392;-80
2022/09/25 06:20:43;;;;;;;4.82;1.75;;;14.10;99.90;;;;;;4964296;28;20098;-80
2022/09/25 06:23:09;;;;;;;5.60;1.98;;;14.10;99.90;;;;;;4966001;29;20031;-81
2022/09/25 06:25:35;;;;;;;6.65;2.30;;;14.20;99.90;;;;;;4965822;29;20067;-80
2022/09/25 06:28:01;;;;;;;4.53;1.77;;;14.10;99.90;;;;;;4963292;29;20039;-81
2022/09/25 06:30:35;;;;;;;3.88;1.88;;;14.20;99.90;;;;;;4964879;29;20043;-80
2022/09/25 06:33:01;;;;;;;5.25;2.83;;;14.20;99.90;;;;;;4964217;29;20284;-80
2022/09/25 06:35:30;;;;;;;4.05;1.67;;;14.20;99.90;;;;;;4963896;29;20045;-80
2022/09/25 06:38:00;;;;;;;4.78;2.17;;;14.20;99.90;;;;;;4965885;29;20027;-80
2022/09/25 06:40:27;;;;;;;5.95;2.42;;;14.30;99.90;;;;;;4965011;29;20023;-81
2022/09/25 06:43:00;;;;;;;5.25;2.53;;;14.30;99.90;;;;;;4964534;29;20031;-81
2022/09/25 06:45:28;;;;;;;7.32;2.00;;;14.40;99.90;;;;;;4964685;29;20098;-81
2022/09/25 06:47:59;;;;;;;5.38;2.20;;;14.40;99.90;;;;;;4965409;29;20025;-81
2022/09/25 06:50:30;;;;;;;5.70;2.35;;;14.40;99.90;;;;;;4965187;29;20260;-80
2022/09/25 06:52:59;;;;;;;6.22;2.40;;;14.40;99.90;;;;;;4965602;29;20031;-80
2022/09/25 06:55:26;;;;;;;4.70;2.13;;;14.40;99.90;;;;;;4965501;29;20053;-80
2022/09/25 06:57:52;;;;;;;4.25;1.98;;;14.50;99.90;;;;;;4964693;29;20070;-80
2022/09/25 07:00:17;;;;;;;5.95;2.30;;;14.60;99.90;;;;;;4965281;29;20049;-80
2022/09/25 07:05:27;;;;;;;3.85;2.40;;;14.70;99.90;;;;;;4964169;29;20250;-80
2022/09/25 07:07:54;;;;;;;3.47;2.40;;;14.80;99.90;;;;;;4965254;29;20039;-80
2022/09/25 07:10:20;;;;;;;5.35;2.50;;;14.80;99.90;;;;;;4965076;29;20014;-80
2022/09/25 07:12:46;;;;;;;7.03;2.55;;;14.80;99.90;;;;;;4964977;29;20086;-82
2022/09/25 07:15:12;;;;;;;4.22;2.72;;;14.80;99.90;;;;;;4965221;29;20019;-80
2022/09/25 07:17:42;;;;;;;6.43;2.35;;;14.90;99.90;;;;;;4959419;29;20037;-81
2022/09/25 07:20:11;;;;;;;5.20;2.38;;;14.90;99.90;;;;;;4959861;29;20027;-82
2022/09/25 07:22:37;;;;;;;5.95;2.47;;;14.90;99.90;;;;;;4964263;29;20055;-82
2022/09/25 07:25:03;;;;;;;5.07;2.33;;;15.00;99.90;;;;;;4963834;29;20019;-82
2022/09/25 07:27:29;;;;;;;5.25;2.40;;;15.00;99.90;;;;;;4963713;29;20034;-82
2022/09/25 07:29:55;;;;;;;6.25;2.17;;;15.10;99.90;;;;;;4964599;29;20086;-82
2022/09/25 07:32:21;;;;;;;5.13;2.53;;;15.10;99.90;;;;;;4971391;28;20333;-82
2022/09/25 07:34:49;;;;;;;6.78;2.33;;;15.20;99.90;;;;;;4970850;28;20058;-84
2022/09/25 07:37:18;;;;;;;6.85;2.42;;;15.30;99.90;;;;;;4964802;29;20015;-82
2022/09/25 07:39:44;;;;;;;4.03;2.20;;;15.40;99.90;;;;;;4964647;29;20374;-82
2022/09/25 07:42:10;;;;;;;3.22;1.80;;;15.40;99.90;;;;;;4963983;29;20023;-83
2022/09/25 07:44:35;;;;;;;4.80;1.70;;;15.50;99.90;;;;;;4964312;29;20339;-80
2022/09/25 07:47:02;;;;;;;5.07;1.80;;;15.50;99.90;;;;;;4964654;29;20094;-80
2022/09/25 07:49:31;;;;;;;3.40;1.60;;;15.50;99.90;;;;;;4964267;29;20019;-80
2022/09/25 07:51:58;;;;;;;3.08;1.77;;;15.60;99.90;;;;;;4961554;28;20042;-77
2022/09/25 07:54:24;;;;;;;4.35;1.88;;;15.80;99.90;;;;;;4964533;29;20015;-79
2022/09/25 07:56:50;;;;;;;5.03;1.60;;;15.90;99.90;;;;;;4964344;29;20035;-79
2022/09/25 07:59:16;;;;;;;2.55;1.30;;;16.00;99.90;;;;;;4964116;29;20043;-78
2022/09/25 08:01:41;;;;;;;3.92;1.67;;;16.00;99.90;;;;;;4964298;29;20027;-78
2022/09/25 08:04:07;;;;;;;4.20;1.30;;;16.00;99.90;;;;;;4960775;29;20262;-78
2022/09/25 08:06:37;;;;;;;3.95;1.30;;;16.10;99.90;;;;;;4950574;29;20043;-79
2022/09/25 08:09:03;;;;;;;3.00;1.40;;;16.20;99.90;;;;;;4955779;29;20535;-78
2022/09/25 08:11:30;;;;;;;4.60;1.55;;;16.30;99.90;;;;;;4954717;29;20027;-78
2022/09/25 08:13:56;;;;;;;2.95;1.00;;;16.40;99.90;;;;;;4953996;29;20023;-78
2022/09/25 08:16:22;;;;;;;2.00;1.17;;;16.40;99.90;;;;;;4952081;29;20034;-78
2022/09/25 08:18:48;;;;;;;2.30;1.33;;;16.40;99.90;;;;;;4953563;29;20090;-78
2022/09/25 08:21:17;;;;;;;3.08;1.27;;;16.50;99.90;;;;;;4956097;29;20070;-77
2022/09/25 08:23:47;;;;;;;3.13;1.23;;;16.60;99.90;;;;;;4951492;29;20676;-80
2022/09/25 08:26:13;;;;;;;3.10;1.55;;;16.70;99.90;;;;;;4955557;29;20039;-80
2022/09/25 08:28:38;;;;;;;6.10;1.55;;;16.70;99.90;;;;;;4962298;29;20445;-80
2022/09/25 08:31:04;;;;;;;5.53;1.70;;;16.60;99.90;;;;;;4959344;29;20483;-80
2022/09/25 08:33:31;;;;;;;3.20;1.30;;;16.70;99.90;;;;;;4952159;29;20030;-80
2022/09/25 08:36:01;;;;;;;3.95;1.65;;;16.70;99.90;;;;;;4953221;29;20082;-80
2022/09/25 08:38:27;;;;;;;2.50;1.25;;;16.80;99.90;;;;;;4953988;29;20086;-79
2022/09/25 08:41:24;;;;;;;3.75;1.83;;;16.90;99.90;;;;;;4952517;29;20563;-80
2022/09/25 08:43:56;;;;;;;3.70;1.45;;;17.00;99.90;;;;;;4943889;28;20034;-79
2022/09/25 08:49:20;;;;;;;2.60;1.30;;;17.20;99.90;;;;;;4951984;29;20664;-80
2022/09/25 08:51:49;;;;;;;3.30;1.10;;;17.30;99.90;;;;;;4955555;29;20439;-80
2022/09/25 08:54:23;;;;;;;2.42;0.90;;;17.50;99.90;;;;;;4941023;29;20110;-79
2022/09/25 08:57:00;;;;;;;3.15;1.08;;;17.70;99.90;;;;;;4954222;29;20042;-79
2022/09/25 08:59:35;;;;;;;2.10;0.82;;;17.90;99.90;;;;;;4950888;29;20720;-80
2022/09/25 09:02:12;;;;;;;3.05;1.45;;;18.00;99.90;;;;;;4951684;29;20106;-79
2022/09/25 09:04:45;;;;;;;2.10;1.05;;;18.10;99.90;;;;;;4941940;29;20420;-80
2022/09/25 09:07:38;;;;;;;;;;;18.20;99.90;;;;;;4954017;29;20106;-79
2022/09/25 09:10:25;;;;;;;1.73;0.95;;;18.40;99.90;;;;;;4950870;29;20063;-80
2022/09/25 09:13:15;;;;;;;3.40;1.00;;;18.30;99.90;;;;;;4955399;29;20038;-79
2022/09/25 09:16:08;;;;;;;3.47;1.38;;;18.20;99.90;;;;;;4943300;29;20511;-80
2022/09/25 09:18:39;;;;;;;3.38;1.30;;;18.00;99.90;;;;;;4946202;29;20226;-82
2022/09/25 09:21:29;;;;;;;4.82;1.60;;;17.90;99.90;;;;;;4953880;29;20027;-82
2022/09/25 09:24:05;;;;;;;3.00;1.50;;;18.00;99.90;;;;;;4952768;29;20069;-82
2022/09/25 09:26:45;;;;;;;3.53;0.80;;;17.90;99.90;;;;;;4950098;29;20027;-82
2022/09/25 09:29:31;;;;;;;1.88;0.80;;;18.00;99.90;;;;;;4951038;29;20094;-82
2022/09/25 09:32:15;;;;;;;3.90;0.80;;;18.10;99.90;;;;;;4940402;29;20531;-82
2022/09/25 09:34:50;;;;;;;2.15;0.80;;;18.20;99.90;;;;;;4950746;29;20034;-82
2022/09/25 09:37:37;;;;;;;1.40;0.77;;;18.30;99.90;;;;;;4950426;29;20034;-80
2022/09/25 09:40:24;;;;;;;4.15;1.20;;;18.20;99.90;;;;;;4950816;29;20054;-80
2022/09/25 09:42:56;;;;;;;2.67;1.00;;;18.20;99.90;;;;;;4952666;29;20067;-81
2022/09/25 09:45:32;;;;;;;1.33;0.50;;;18.40;99.90;;;;;;4950776;29;20043;-80
2022/09/25 09:48:05;;;;;;;0.88;0.50;;;18.40;99.90;;;;;;4950465;29;20412;-81
2022/09/25 09:50:43;;;;;;;1.73;0.60;;;18.60;99.90;;;;;;4960379;29;20056;-80
2022/09/25 09:53:30;;;;;;;1.80;0.35;;;18.80;99.90;;;;;;4957574;29;20078;-80
2022/09/25 09:56:21;;;;;;;2.45;0.50;;;19.00;99.90;;;;;;4964096;28;20019;-77
2022/09/25 09:58:56;;;;;;;5.18;0.43;;;19.10;99.90;;;;;;4965848;29;20347;-78
2022/09/25 10:01:28;;;;;;;1.95;0.60;;;19.30;99.90;;;;;;4966009;29;20023;-77
2022/09/25 10:04:09;;;;;;;1.05;0.52;;;19.60;99.90;;;;;;4957961;29;20046;-77
2022/09/25 10:06:42;;;;;;;1.13;0.50;;;19.70;99.90;;;;;;4964934;29;20039;-77
2022/09/25 10:09:13;;;;;;;1.02;0.50;;;19.80;99.90;;;;;;4965694;29;20102;-77
2022/09/25 10:11:40;;;;;;;1.00;0.50;;;19.90;99.90;;;;;;4965970;29;20027;-77
2022/09/25 10:14:14;;;;;;;1.75;0.60;;;19.90;99.90;;;;;;4965958;29;20054;-77
2022/09/25 10:16:40;;;;;;;1.23;0.50;;;20.00;99.90;;;;;;4971183;28;20098;-77
2022/09/25 10:19:19;;;;;;;5.30;0.63;;;19.90;99.90;;;;;;4964240;29;20066;-80
2022/09/25 10:21:57;;;;;;;0.77;0.40;;;19.80;99.90;;;;;;4965477;29;20194;-82
2022/09/25 10:24:46;;;;;;;0.80;0.45;;;19.70;99.90;;;;;;4965258;29;20047;-81
2022/09/25 10:27:27;;;;;;;1.42;0.60;;;19.60;99.90;;;;;;4963418;29;20027;-81
2022/09/25 10:30:08;;;;;;;3.78;0.90;;;19.50;99.90;;;;;;4964690;29;20031;-85
2022/09/25 10:32:50;;;;;;;1.05;0.60;;;19.50;99.90;;;;;;4965486;29;20455;-81
2022/09/25 10:35:21;;;;;;;1.67;0.68;;;19.70;99.90;;;;;;4964466;29;20019;-81
2022/09/25 10:37:56;;;;;;;1.92;0.60;;;19.80;99.90;;;;;;4964177;29;20026;-82
2022/09/25 10:40:26;;;;;;;1.90;0.65;;;19.80;99.90;;;;;;4965125;29;20071;-81
2022/09/25 10:43:24;;;;;;;1.33;0.90;;;19.70;99.90;;;;;;4964445;29;20027;-81
2022/09/25 10:46:06;;;;;;;2.55;1.00;;;19.60;99.90;;;;;;4911481;29;20043;-81
2022/09/25 10:51:23;;;;;;;2.80;1.40;;;19.30;99.90;;;;;;4964637;29;20042;-81
2022/09/25 10:54:10;;;;;;;2.05;1.40;;;19.20;99.90;;;;;;4964911;29;20070;-81
2022/09/25 10:56:37;;;;;;;5.10;1.38;;;19.50;99.90;;;;;;4963325;29;20027;-82
2022/09/25 10:59:13;;;;;;;2.95;1.60;;;19.80;99.90;;;;;;4965384;29;20267;-81
2022/09/25 11:01:41;;;;;;;5.10;2.90;;;19.70;99.90;;;;;;4964667;29;20023;-86
2022/09/25 11:04:30;;;;;;;2.58;1.35;;;19.60;99.90;;;;;;4964485;29;20480;-76
2022/09/25 11:07:00;;;;;;;2.47;1.65;;;19.70;99.90;;;;;;4965379;28;20082;-78
2022/09/25 11:09:31;;;;;;;2.90;1.58;;;19.90;99.90;;;;;;4965389;29;20023;-78
2022/09/25 11:12:22;;;;;;;3.58;2.08;;;20.20;99.90;;;;;;4965343;29;20074;-79
2022/09/25 11:15:01;;;;;;;2.50;1.40;;;20.50;99.90;;;;;;4965207;29;20217;-78
2022/09/25 11:17:29;;;;;;;1.95;1.42;;;20.80;99.90;;;;;;4959734;29;20023;-78
2022/09/25 11:20:17;;;;;;;3.00;1.27;;;20.90;99.90;;;;;;4946493;29;20396;-78
2022/09/25 11:22:53;;;;;;;2.47;1.38;;;21.20;99.90;;;;;;4962242;29;20486;-78
2022/09/25 11:25:33;;;;;;;2.35;1.60;;;21.40;99.90;;;;;;4962562;29;20261;-79
2022/09/25 11:28:14;;;;;;;3.28;2.00;;;21.50;99.90;;;;;;4962845;29;20031;-78
2022/09/25 11:31:01;;;;;;;4.57;1.60;;;21.20;99.90;;;;;;4963733;29;20031;-78
2022/09/25 11:33:41;;;;;;;3.75;1.95;;;21.40;99.90;;;;;;4963440;29;20218;-78
2022/09/25 11:36:44;;;;;;;4.82;1.90;;;21.80;99.90;;;;;;4964073;29;20115;-77
2022/09/25 11:42:42;;;;;;;3.45;1.92;;;21.90;99.90;;;;;;4868098;29;20032;-78
2022/09/25 11:45:41;;;;;;;4.38;1.85;;;21.70;99.90;;;;;;4867737;29;20045;-78
2022/09/25 11:48:36;;;;;;;3.10;2.03;;;21.50;99.90;;;;;;4949292;29;20274;-78
2022/09/25 11:51:27;;;;;;;3.80;2.15;;;21.50;99.90;;;;;;4964302;29;20033;-78
2022/09/25 11:54:12;;;;;;;3.83;2.40;;;21.60;99.90;;;;;;4964434;29;20022;-78
2022/09/25 11:57:12;;;;;;;4.10;2.28;;;21.80;99.90;;;;;;4963365;29;20034;-78
2022/09/25 12:00:06;;;;;;;3.17;2.10;;;21.70;99.90;;;;;;4953931;29;20303;-78
2022/09/25 12:02:32;;;;;;;3.30;2.20;;;21.60;99.90;;;;;;4964340;29;20046;-80
2022/09/25 12:05:07;;;;;;;3.17;2.22;;;21.90;99.90;;;;;;4964427;29;20095;-80
2022/09/25 12:07:49;;;;;;;4.70;2.50;;;21.90;99.90;;;;;;4964286;29;20034;-80
2022/09/25 12:10:27;;;;;;;3.55;2.00;;;21.90;99.90;;;;;;4964166;29;20015;-80
2022/09/25 12:12:58;;;;;;;3.45;2.10;;;21.90;99.90;;;;;;4956740;29;20093;-84
2022/09/25 12:15:48;;;;;;;5.18;2.35;;;22.20;99.90;;;;;;4962877;29;20023;-84
2022/09/25 12:18:42;;;;;;;3.78;2.53;;;22.30;99.80;;;;;;4961832;28;20023;-83
2022/09/25 12:21:16;;;;;;;4.13;2.35;;;22.50;99.10;;;;;;4963813;29;20065;-84
2022/09/25 12:24:07;;;;;;;4.47;2.60;;;22.80;99.30;;;;;;4963789;29;20015;-84
2022/09/25 12:26:53;;;;;;;2.67;1.75;;;23.00;98.80;;;;;;4921039;29;20382;-83
2022/09/25 12:29:34;;;;;;;3.22;2.03;;;23.20;98.00;;;;;;4945513;29;20538;-81
2022/09/25 12:32:15;;;;;;;3.83;2.22;;;23.30;98.00;;;;;;4964041;29;20086;-81
2022/09/25 12:35:14;;;;;;;2.88;2.15;;;23.40;97.80;;;;;;4963522;29;20094;-81
2022/09/25 12:38:18;;;;;;;3.53;2.17;;;23.60;97.60;;;;;;4963466;29;20034;-81
2022/09/25 12:40:56;;;;;;;2.72;2.17;;;23.70;97.70;;;;;;4963225;29;20054;-83
2022/09/25 12:43:44;;;;;;;3.47;2.45;;;23.60;97.20;;;;;;4963405;29;20050;-81
2022/09/25 12:46:29;;;;;;;2.85;2.40;;;23.40;97.40;;;;;;4963465;29;20051;-81
2022/09/25 12:49:13;;;;;;;4.55;2.20;;;23.20;97.20;;;;;;4963478;29;20050;-81
2022/09/25 12:51:49;;;;;;;3.58;2.75;;;22.90;97.30;;;;;;4959283;29;20235;-81
2022/09/25 12:54:38;;;;;;;3.28;2.05;;;22.90;97.70;;;;;;4963295;29;20018;-81
2022/09/25 12:57:18;;;;;;;2.70;2.10;;;23.00;98.20;;;;;;4960224;29;20030;-84
2022/09/25 12:59:51;;;;;;;3.75;3.05;;;23.40;97.80;;;;;;4962626;29;20043;-83
2022/09/25 13:02:44;;;;;;;3.45;2.60;;;23.90;97.50;;;;;;4961821;29;20086;-81
2022/09/25 13:05:14;;;;;;;3.83;2.67;;;24.40;96.80;;;;;;4958778;29;20270;-83
2022/09/25 13:08:09;;;;;;;2.65;1.80;;;24.70;96.10;;;;;;4957541;29;20066;-83
2022/09/25 13:10:43;;;;;;;3.40;1.98;;;24.70;94.80;;;;;;4957955;29;20098;-81
2022/09/25 13:13:18;;;;;;;;;;;24.30;95.10;;;;;;4958201;29;20078;-82
2022/09/25 13:15:49;;;;;;;2.30;1.10;;;24.30;95.40;;;;;;4950939;29;19906;-83
2022/09/25 13:18:20;;;;;;;2.83;1.35;;;24.10;95.60;;;;;;4952067;29;20455;-82
2022/09/25 13:20:56;;;;;;;1.55;0.93;;;23.70;95.80;;;;;;4951757;29;20042;-83
2022/09/25 13:23:40;;;;;;;2.15;1.60;;;23.30;96.30;;;;;;4952368;29;20012;-82
2022/09/25 13:26:09;;;;;;;3.72;1.92;;;22.80;97.30;;;;;;4951607;29;20121;-82
2022/09/25 13:29:13;;;;;;;5.75;2.05;;;22.40;97.80;;;;;;4951460;28;20041;-82
2022/09/25 13:31:43;;;;;;;2.65;2.00;;;22.00;98.50;;;;;;4953874;29;20030;-82
2022/09/25 13:34:14;;;;;;;4.60;2.22;;;21.60;99.50;;;;;;4954156;29;20043;-80
2022/09/25 13:36:56;;;;;;;4.95;1.88;;;21.30;99.90;;;;;;4954540;29;20031;-82